sensor_id;sensor_type;location;lat;lon;timestamp;pressure;altitude;pressure_sealevel;temperature;humidity
50696;BME280;36665;51.786;21.594;2023-03-23T00:01:32;95175.14;;;7.93;69.45
50696;BME280;36665;51.786;21.594;2023-03-23T00:09:58;95187.83;;;7.96;69.53
50696;BME280;36665;51.786;21.594;2023-03-23T00:18:21;95206.09;;;8.01;69.68
50696;BME280;36665;51.786;21.594;2023-03-23T00:26:46;95204.72;;;8.02;69.39
50696;BME280;36665;51.786;21.594;2023-03-23T00:35:08;95175.98;;;7.93;69.46
50696;BME280;36665;51.786;21.594;2023-03-23T00:43:32;95159.48;;;7.88;69.61
50696;BME280;36665;51.786;21.594;2023-03-23T00:51:58;95137.73;;;7.83;69.51
50696;BME280;36665;51.786;21.594;2023-03-23T01:00:21;95086.46;;;7.69;69.45
50696;BME280;36665;51.786;21.594;2023-03-23T01:08:44;95013.93;;;7.51;69.59
50696;BME280;36665;51.786;21.594;2023-03-23T01:17:10;94983.87;;;7.44;69.45
50696;BME280;36665;51.786;21.594;2023-03-23T01:25:35;94960.20;;;7.38;69.62
50696;BME280;36665;51.786;21.594;2023-03-23T01:33:57;94920.76;;;7.27;69.57
50696;BME280;36665;51.786;21.594;2023-03-23T01:42:31;94862.46;;;7.11;69.65
50696;BME280;36665;51.786;21.594;2023-03-23T01:50:59;94805.16;;;6.98;69.37
50696;BME280;36665;51.786;21.594;2023-03-23T01:59:24;94800.85;;;6.96;69.41
50696;BME280;36665;51.786;21.594;2023-03-23T02:08:14;94812.98;;;6.98;69.50
50696;BME280;36665;51.786;21.594;2023-03-23T02:16:47;94779.83;;;6.90;69.67
50696;BME280;36665;51.786;21.594;2023-03-23T02:33:56;94715.06;;;6.74;69.56
50696;BME280;36665;51.786;21.594;2023-03-23T02:42:25;94644.31;;;6.56;69.48
50696;BME280;36665;51.786;21.594;2023-03-23T02:50:51;94578.08;;;6.38;69.39
50696;BME280;36665;51.786;21.594;2023-03-23T02:59:14;94557.15;;;6.31;69.29
50696;BME280;36665;51.786;21.594;2023-03-23T03:24:55;94482.09;;;6.12;69.40
50696;BME280;36665;51.786;21.594;2023-03-23T03:33:19;94466.68;;;6.08;69.27
50696;BME280;36665;51.786;21.594;2023-03-23T03:41:43;94437.25;;;6.01;69.35
50696;BME280;36665;51.786;21.594;2023-03-23T03:50:06;94433.27;;;5.99;69.61
50696;BME280;36665;51.786;21.594;2023-03-23T03:58:28;94452.39;;;6.05;69.54
50696;BME280;36665;51.786;21.594;2023-03-23T04:06:52;94480.43;;;6.12;69.81
50696;BME280;36665;51.786;21.594;2023-03-23T04:15:15;94472.21;;;6.09;69.78
50696;BME280;36665;51.786;21.594;2023-03-23T04:23:38;94461.81;;;6.06;69.60
50696;BME280;36665;51.786;21.594;2023-03-23T04:32:02;94462.29;;;6.07;69.69
50696;BME280;36665;51.786;21.594;2023-03-23T04:40:36;94473.91;;;6.10;69.61
50696;BME280;36665;51.786;21.594;2023-03-23T04:49:07;94471.84;;;6.09;69.78
50696;BME280;36665;51.786;21.594;2023-03-23T04:57:32;94485.66;;;6.12;69.76
50696;BME280;36665;51.786;21.594;2023-03-23T05:06:14;94523.52;;;6.22;69.81
50696;BME280;36665;51.786;21.594;2023-03-23T05:14:40;94573.17;;;6.35;69.90
50696;BME280;36665;51.786;21.594;2023-03-23T05:23:04;94634.02;;;6.51;69.92
50696;BME280;36665;51.786;21.594;2023-03-23T05:31:30;94749.15;;;6.81;69.89
50696;BME280;36665;51.786;21.594;2023-03-23T05:39:52;94856.88;;;7.09;70.21
50696;BME280;36665;51.786;21.594;2023-03-23T05:48:21;94922.20;;;7.25;70.48
50696;BME280;36665;51.786;21.594;2023-03-23T05:56:43;94983.42;;;7.41;70.21
50696;BME280;36665;51.786;21.594;2023-03-23T06:05:31;95067.13;;;7.63;70.47
50696;BME280;36665;51.786;21.594;2023-03-23T06:13:55;95173.77;;;7.91;70.62
50696;BME280;36665;51.786;21.594;2023-03-23T06:22:17;95341.75;;;8.32;70.72
50696;BME280;36665;51.786;21.594;2023-03-23T06:31:04;95451.20;;;8.61;70.77
50696;BME280;36665;51.786;21.594;2023-03-23T06:39:29;95570.65;;;8.91;70.89
50696;BME280;36665;51.786;21.594;2023-03-23T06:47:59;95641.83;;;9.09;70.99
50696;BME280;36665;51.786;21.594;2023-03-23T06:56:24;95777.27;;;9.44;70.97
50696;BME280;36665;51.786;21.594;2023-03-23T07:04:46;96040.38;;;10.11;71.19
50696;BME280;36665;51.786;21.594;2023-03-23T07:13:13;96221.15;;;10.56;71.48
50696;BME280;36665;51.786;21.594;2023-03-23T07:21:41;96279.70;;;10.70;71.54
50696;BME280;36665;51.786;21.594;2023-03-23T07:30:05;96327.61;;;10.83;71.61
50696;BME280;36665;51.786;21.594;2023-03-23T07:38:28;96418.63;;;11.05;71.68
50696;BME280;36665;51.786;21.594;2023-03-23T07:46:50;96548.17;;;11.38;71.52
50696;BME280;36665;51.786;21.594;2023-03-23T07:55:15;96767.25;;;11.92;71.55
50696;BME280;36665;51.786;21.594;2023-03-23T08:04:06;97042.77;;;12.61;71.77
50696;BME280;36665;51.786;21.594;2023-03-23T08:12:55;97215.91;;;13.03;71.95
50696;BME280;36665;51.786;21.594;2023-03-23T08:21:36;97394.23;;;13.47;71.99
50696;BME280;36665;51.786;21.594;2023-03-23T08:30:34;97609.95;;;13.99;71.94
50696;BME280;36665;51.786;21.594;2023-03-23T08:39:36;97784.05;;;14.41;72.11
50696;BME280;36665;51.786;21.594;2023-03-23T08:48:18;97845.70;;;14.56;72.01
50696;BME280;36665;51.786;21.594;2023-03-23T08:57:02;97840.20;;;14.54;72.09
50696;BME280;36665;51.786;21.594;2023-03-23T09:05:42;97802.46;;;14.45;72.11
50696;BME280;36665;51.786;21.594;2023-03-23T09:14:30;97805.08;;;14.46;71.90
50696;BME280;36665;51.786;21.594;2023-03-23T09:22:55;97883.02;;;14.64;71.92
50696;BME280;36665;51.786;21.594;2023-03-23T09:31:18;97966.56;;;14.85;71.81
50696;BME280;36665;51.786;21.594;2023-03-23T09:39:44;98036.45;;;15.01;71.99
50696;BME280;36665;51.786;21.594;2023-03-23T09:48:23;98148.03;;;15.29;71.74
50696;BME280;36665;51.786;21.594;2023-03-23T09:56:47;98283.55;;;15.61;71.77
50696;BME280;36665;51.786;21.594;2023-03-23T10:22:42;98482.20;;;16.08;71.80
50696;BME280;36665;51.786;21.594;2023-03-23T10:31:15;98367.02;;;15.82;71.82
50696;BME280;36665;51.786;21.594;2023-03-23T10:40:00;98360.81;;;15.81;71.53
50696;BME280;36665;51.786;21.594;2023-03-23T10:48:32;98404.98;;;15.91;71.48
50696;BME280;36665;51.786;21.594;2023-03-23T10:56:57;98489.53;;;16.10;71.41
50696;BME280;36665;51.786;21.594;2023-03-23T11:05:21;98605.80;;;16.38;71.53
50696;BME280;36665;51.786;21.594;2023-03-23T11:13:47;98747.11;;;16.73;71.55
50696;BME280;36665;51.786;21.594;2023-03-23T11:30:44;99111.23;;;17.59;71.33
50696;BME280;36665;51.786;21.594;2023-03-23T11:39:32;99233.98;;;17.88;71.44
50696;BME280;36665;51.786;21.594;2023-03-23T11:48:18;99226.28;;;17.85;71.33
50696;BME280;36665;51.786;21.594;2023-03-23T11:56:44;99196.87;;;17.80;71.33
50696;BME280;36665;51.786;21.594;2023-03-23T12:05:32;99214.75;;;17.85;71.21
50696;BME280;36665;51.786;21.594;2023-03-23T12:14:01;99168.41;;;17.74;71.06
50696;BME280;36665;51.786;21.594;2023-03-23T12:31:25;99152.94;;;17.71;70.94
50696;BME280;36665;51.786;21.594;2023-03-23T12:48:29;99386.20;;;18.27;70.78
50696;BME280;36665;51.786;21.594;2023-03-23T12:57:14;99382.91;;;18.26;70.67
50696;BME280;36665;51.786;21.594;2023-03-23T13:06:08;99343.90;;;18.17;70.70
50696;BME280;36665;51.786;21.594;2023-03-23T13:23:43;99312.02;;;18.11;70.40
50696;BME280;36665;51.786;21.594;2023-03-23T13:32:37;99232.08;;;17.93;70.30
50696;BME280;36665;51.786;21.594;2023-03-23T13:41:11;99189.50;;;17.83;70.12
50696;BME280;36665;51.786;21.594;2023-03-23T13:49:45;99173.35;;;17.80;70.09
50696;BME280;36665;51.786;21.594;2023-03-23T13:58:11;99111.36;;;17.65;69.96
50696;BME280;36665;51.786;21.594;2023-03-23T14:06:35;99030.02;;;17.46;69.92
50696;BME280;36665;51.786;21.594;2023-03-23T14:15:03;98990.34;;;17.37;69.71
50696;BME280;36665;51.786;21.594;2023-03-23T14:23:31;98959.98;;;17.31;69.70
50696;BME280;36665;51.786;21.594;2023-03-23T14:31:55;98947.90;;;17.28;69.71
50696;BME280;36665;51.786;21.594;2023-03-23T14:40:18;98889.45;;;17.14;69.49
50696;BME280;36665;51.786;21.594;2023-03-23T14:48:41;98840.51;;;17.03;69.49
50696;BME280;36665;51.786;21.594;2023-03-23T15:05:34;98681.63;;;16.66;69.19
50696;BME280;36665;51.786;21.594;2023-03-23T15:14:30;98599.81;;;16.46;69.00
50696;BME280;36665;51.786;21.594;2023-03-23T15:22:52;98493.29;;;16.22;69.12
50696;BME280;36665;51.786;21.594;2023-03-23T15:31:14;98412.98;;;16.02;69.03
50696;BME280;36665;51.786;21.594;2023-03-23T15:39:40;98333.67;;;15.83;68.82
50696;BME280;36665;51.786;21.594;2023-03-23T15:48:11;98257.95;;;15.66;68.86
50696;BME280;36665;51.786;21.594;2023-03-23T15:56:34;98192.52;;;15.50;68.67
50696;BME280;36665;51.786;21.594;2023-03-23T16:04:56;98130.80;;;15.36;68.51
50696;BME280;36665;51.786;21.594;2023-03-23T16:13:19;98073.27;;;15.21;68.43
50696;BME280;36665;51.786;21.594;2023-03-23T16:21:43;98014.95;;;15.07;68.58
50696;BME280;36665;51.786;21.594;2023-03-23T16:30:33;97941.84;;;14.90;68.43
50696;BME280;36665;51.786;21.594;2023-03-23T16:38:57;97877.59;;;14.76;68.16
50696;BME280;36665;51.786;21.594;2023-03-23T16:47:22;97815.59;;;14.60;68.18
50696;BME280;36665;51.786;21.594;2023-03-23T16:55:50;97738.80;;;14.42;68.31
50696;BME280;36665;51.786;21.594;2023-03-23T17:04:14;97671.95;;;14.26;68.24
50696;BME280;36665;51.786;21.594;2023-03-23T17:12:38;97625.65;;;14.15;68.03
50696;BME280;36665;51.786;21.594;2023-03-23T17:21:02;97572.58;;;14.02;67.92
50696;BME280;36665;51.786;21.594;2023-03-23T17:29:25;97510.94;;;13.86;67.99
50696;BME280;36665;51.786;21.594;2023-03-23T17:37:48;97468.62;;;13.76;67.94
50696;BME280;36665;51.786;21.594;2023-03-23T17:46:12;97424.46;;;13.64;67.67
50696;BME280;36665;51.786;21.594;2023-03-23T17:54:36;97366.26;;;13.51;67.63
50696;BME280;36665;51.786;21.594;2023-03-23T18:02:59;97297.73;;;13.34;67.70
50696;BME280;36665;51.786;21.594;2023-03-23T18:11:23;97223.14;;;13.17;67.83
50696;BME280;36665;51.786;21.594;2023-03-23T18:19:46;97137.41;;;12.96;67.62
50696;BME280;36665;51.786;21.594;2023-03-23T18:28:09;97050.20;;;12.75;67.37
50696;BME280;36665;51.786;21.594;2023-03-23T18:36:33;96974.52;;;12.55;67.51
50696;BME280;36665;51.786;21.594;2023-03-23T18:44:56;96961.61;;;12.53;67.31
50696;BME280;36665;51.786;21.594;2023-03-23T18:53:22;96991.88;;;12.60;67.45
50696;BME280;36665;51.786;21.594;2023-03-23T19:01:45;97001.78;;;12.63;67.52
50696;BME280;36665;51.786;21.594;2023-03-23T19:10:09;97031.29;;;12.71;67.33
50696;BME280;36665;51.786;21.594;2023-03-23T19:18:32;97049.83;;;12.76;67.31
50696;BME280;36665;51.786;21.594;2023-03-23T19:26:57;97069.57;;;12.82;67.40
50696;BME280;36665;51.786;21.594;2023-03-23T19:35:20;97080.42;;;12.83;67.47
50696;BME280;36665;51.786;21.594;2023-03-23T19:43:43;97067.95;;;12.80;67.17
50696;BME280;36665;51.786;21.594;2023-03-23T19:52:07;97038.52;;;12.74;67.43
50696;BME280;36665;51.786;21.594;2023-03-23T20:00:35;97004.90;;;12.65;67.34
50696;BME280;36665;51.786;21.594;2023-03-23T20:08:59;96952.58;;;12.52;67.30
50696;BME280;36665;51.786;21.594;2023-03-23T20:17:23;96896.55;;;12.38;67.14
50696;BME280;36665;51.786;21.594;2023-03-23T20:25:47;96862.55;;;12.30;67.21
50696;BME280;36665;51.786;21.594;2023-03-23T20:34:15;96859.09;;;12.28;67.16
50696;BME280;36665;51.786;21.594;2023-03-23T20:42:50;96838.13;;;12.23;67.15
50696;BME280;36665;51.786;21.594;2023-03-23T20:51:16;96781.41;;;12.10;67.23
50696;BME280;36665;51.786;21.594;2023-03-23T20:59:39;96699.59;;;11.88;67.05
50696;BME280;36665;51.786;21.594;2023-03-23T21:08:03;96627.92;;;11.71;67.13
50696;BME280;36665;51.786;21.594;2023-03-23T21:16:26;96593.30;;;11.60;67.04
50696;BME280;36665;51.786;21.594;2023-03-23T21:24:49;96578.73;;;11.58;67.01
50696;BME280;36665;51.786;21.594;2023-03-23T21:33:13;96578.35;;;11.58;67.15
50696;BME280;36665;51.786;21.594;2023-03-23T21:41:37;96594.25;;;11.61;67.33
50696;BME280;36665;51.786;21.594;2023-03-23T21:50:05;96603.91;;;11.65;67.29
50696;BME280;36665;51.786;21.594;2023-03-23T21:58:30;96624.48;;;11.70;67.12
50696;BME280;36665;51.786;21.594;2023-03-23T22:06:54;96645.39;;;11.76;67.18
50696;BME280;36665;51.786;21.594;2023-03-23T22:15:17;96648.77;;;11.75;67.33
50696;BME280;36665;51.786;21.594;2023-03-23T22:23:41;96619.16;;;11.69;67.10
50696;BME280;36665;51.786;21.594;2023-03-23T22:32:04;96584.09;;;11.60;67.13
50696;BME280;36665;51.786;21.594;2023-03-23T22:40:29;96573.48;;;11.57;67.34
50696;BME280;36665;51.786;21.594;2023-03-23T22:48:52;96579.81;;;11.59;67.16
50696;BME280;36665;51.786;21.594;2023-03-23T22:57:15;96568.09;;;11.56;66.99
50696;BME280;36665;51.786;21.594;2023-03-23T23:05:41;96564.59;;;11.55;67.20
50696;BME280;36665;51.786;21.594;2023-03-23T23:14:05;96586.00;;;11.60;67.22
50696;BME280;36665;51.786;21.594;2023-03-23T23:22:28;96575.86;;;11.58;67.29
50696;BME280;36665;51.786;21.594;2023-03-23T23:30:51;96541.84;;;11.49;67.27
50696;BME280;36665;51.786;21.594;2023-03-23T23:39:14;96494.46;;;11.37;67.27
50696;BME280;36665;51.786;21.594;2023-03-23T23:47:38;96492.31;;;11.36;67.28
50696;BME280;36665;51.786;21.594;2023-03-23T23:56:03;96525.18;;;11.45;67.24
